Decoded Metar for KBKL (CLEVELAND in OH, USA) (IATA:BKL) | Meteo·Mobile Aviation Weather
aviador You're here:

KBKL Decoded Metar

CLEVELAND in OH, USA
Report Time2018-10-19 18:53:00
UTC Time2018-10-19 19:57:19
Flight Rules vfr VFR
Wind180° at 11 kt
W.Decomp.*RWY 24: 6.6 kt HW 8.8 kt LCW
W.Rank180° ranks 8
Current wind is above 180° avg. (10.2)
Visibility9999 m
Phenomena:N/A
Clouds:N/A
Expected CloudBase > 5,600 ft AGL from Temp-Dew spread
CeilingNone
Temp14°C (ISA 0)
Dew Point00°C (39% RH)
AAT8.1°C
QNH1016 hPa
Density Alt614 ft
Elevation604 ft
Report Wrong Elevation
Raw Report
KBKL 191853Z 18011KT 10SM CLR 14/00 A3001 RMK AO2 SLP166
T01390000=

Extra information for KBKL:More info

Metar Taf Metar & Taf Last 4 Metars F.Rules Stats Wind Profile Meteogram Temp Stats Airport Information Weather charts Add Link Nearby VenuesMetar ALERT Operation Metar Decoded Social comments

AIRNAV info for KBKL